Time;durP1;ratioP1;P1;durP2;ratioP2;P2;SDS_P1;SDS_P2;PMS_P1;PMS_P2;Temp;Humidity;BMP_temperature;BMP_pressure;BME280_temperature;BME280_humidity;BME280_pressure;Samples;Min_cycle;Max_cycle;Signal;HPM_P1;HPM_P2
2023/10/25 00:03:05;;;;;;;16.2;8.9;;;;;;;13.86;90.03;;;;;
2023/10/25 00:13:05;;;;;;;16.2;8.9;;;;;;;13.75;89.9;;;;;
2023/10/25 00:23:05;;;;;;;16.2;8.9;;;;;;;13.63;90.73;;;;;
2023/10/25 00:34:05;;;;;;;14.9;7.4;;;;;;;13.76;90.52;;;;;
2023/10/25 00:45:05;;;;;;;14.9;7.4;;;;;;;13.77;90.57;;;;;
2023/10/25 00:55:05;;;;;;;14.9;7.4;;;;;;;14;89.96;;;;;
2023/10/25 01:05:05;;;;;;;14.4;6.7;;;;;;;14.03;89.82;;;;;
2023/10/25 01:16:05;;;;;;;14.4;6.7;;;;;;;14.06;89.56;;;;;
2023/10/25 01:27:05;;;;;;;14.4;6.7;;;;;;;14.03;89.2;;;;;
2023/10/25 01:37:05;;;;;;;17.7;8.5;;;;;;;13.97;89.32;;;;;
2023/10/25 01:47:05;;;;;;;17.7;8.5;;;;;;;14.01;89.1;;;;;
2023/10/25 01:58:05;;;;;;;13.7;7.3;;;;;;;14.01;89.12;;;;;
2023/10/25 02:09:05;;;;;;;13.7;7.3;;;;;;;13.96;88.97;;;;;
2023/10/25 02:20:05;;;;;;;13.7;7.3;;;;;;;14.02;88.87;;;;;
2023/10/25 02:30:05;;;;;;;14.7;7.2;;;;;;;14.02;88.73;;;;;
2023/10/25 02:41:05;;;;;;;14.7;7.2;;;;;;;13.99;88.41;;;;;
2023/10/25 02:51:05;;;;;;;14.7;7.2;;;;;;;13.98;88.77;;;;;
2023/10/25 03:02:05;;;;;;;14.3;6.8;;;;;;;13.99;88.66;;;;;
2023/10/25 03:13:05;;;;;;;14.3;6.8;;;;;;;14;88.61;;;;;
2023/10/25 03:23:05;;;;;;;14.3;6.8;;;;;;;14.02;88.9;;;;;
2023/10/25 03:34:05;;;;;;;13;7.7;;;;;;;14.11;88.74;;;;;
2023/10/25 03:45:06;;;;;;;13;7.7;;;;;;;14.18;88.5;;;;;
2023/10/25 03:55:05;;;;;;;13;7.7;;;;;;;14.11;88.23;;;;;
2023/10/25 04:06:05;;;;;;;15.2;7.4;;;;;;;13.98;89.03;;;;;
2023/10/25 04:17:05;;;;;;;15.2;7.4;;;;;;;13.91;90.01;;;;;
2023/10/25 04:27:05;;;;;;;15.2;7.4;;;;;;;13.89;90.44;;;;;
2023/10/25 04:38:05;;;;;;;10.7;6.9;;;;;;;13.77;90.65;;;;;
2023/10/25 04:48:05;;;;;;;10.7;6.9;;;;;;;13.73;90.86;;;;;
2023/10/25 04:58:05;;;;;;;13.2;7.3;;;;;;;13.84;90.75;;;;;
2023/10/25 05:09:05;;;;;;;13.2;7.3;;;;;;;13.81;90.68;;;;;
2023/10/25 05:20:06;;;;;;;13.2;7.3;;;;;;;13.58;91.5;;;;;
2023/10/25 05:31:05;;;;;;;14.3;9.4;;;;;;;13.59;91.21;;;;;
2023/10/25 05:42:05;;;;;;;14.3;9.4;;;;;;;13.68;90.65;;;;;
2023/10/25 05:52:07;;;;;;;14.3;9.4;;;;;;;13.46;90.59;;;;;
2023/10/25 06:03:05;;;;;;;13.7;10.2;;;;;;;13.42;90.44;;;;;
2023/10/25 06:13:05;;;;;;;13.7;10.2;;;;;;;13.45;90.18;;;;;
2023/10/25 06:24:05;;;;;;;13.7;10.2;;;;;;;13.33;90.36;;;;;
2023/10/25 06:34:05;;;;;;;14.1;10.5;;;;;;;13.22;90.56;;;;;
2023/10/25 06:44:05;;;;;;;14.1;10.5;;;;;;;13.1;90.93;;;;;
2023/10/25 06:55:05;;;;;;;14.1;10.5;;;;;;;12.99;91.36;;;;;
2023/10/25 07:05:05;;;;;;;18.2;12.4;;;;;;;12.93;91.37;;;;;
2023/10/25 07:16:05;;;;;;;18.2;12.4;;;;;;;12.95;91.36;;;;;
2023/10/25 07:27:05;;;;;;;18.2;12.4;;;;;;;12.95;90.69;;;;;
2023/10/25 07:37:05;;;;;;;17;12.3;;;;;;;12.99;90.51;;;;;
2023/10/25 07:47:05;;;;;;;17;12.3;;;;;;;12.87;90.06;;;;;
2023/10/25 07:58:05;;;;;;;13.8;11.4;;;;;;;12.71;90.11;;;;;
2023/10/25 08:08:05;;;;;;;13.8;11.4;;;;;;;12.66;89.44;;;;;
2023/10/25 08:18:05;;;;;;;13.8;11.4;;;;;;;12.82;89.08;;;;;
2023/10/25 08:28:05;;;;;;;17.8;11.1;;;;;;;12.67;89.06;;;;;
2023/10/25 08:39:05;;;;;;;17.8;11.1;;;;;;;12.58;89.31;;;;;
2023/10/25 08:49:05;;;;;;;17.8;11.1;;;;;;;12.65;88.9;;;;;
2023/10/25 09:00:07;;;;;;;18.4;11.7;;;;;;;12.74;88.43;;;;;
2023/10/25 09:10:05;;;;;;;18.4;11.7;;;;;;;12.72;88.01;;;;;
2023/10/25 09:21:05;;;;;;;18.4;11.7;;;;;;;12.91;87.36;;;;;
2023/10/25 09:31:05;;;;;;;13.6;9.4;;;;;;;13.02;87.06;;;;;
2023/10/25 09:41:05;;;;;;;13.6;9.4;;;;;;;12.99;87.19;;;;;
2023/10/25 09:52:05;;;;;;;13.6;9.4;;;;;;;13.14;86.47;;;;;
2023/10/25 10:02:05;;;;;;;11.2;8.7;;;;;;;13.33;85.63;;;;;
2023/10/25 10:13:05;;;;;;;11.2;8.7;;;;;;;13.4;85.42;;;;;
2023/10/25 10:23:05;;;;;;;11.2;8.7;;;;;;;13.45;84.56;;;;;
2023/10/25 10:34:05;;;;;;;12.4;7.5;;;;;;;13.44;84.53;;;;;
2023/10/25 10:45:05;;;;;;;12.4;7.5;;;;;;;13.74;83.8;;;;;
2023/10/25 10:55:05;;;;;;;12.4;7.5;;;;;;;13.7;83.09;;;;;
2023/10/25 11:05:05;;;;;;;8.2;4.9;;;;;;;13.68;83.5;;;;;
2023/10/25 11:16:08;;;;;;;8.2;4.9;;;;;;;13.74;83.5;;;;;
2023/10/25 11:26:05;;;;;;;8.2;4.9;;;;;;;13.69;83.81;;;;;
2023/10/25 11:37:05;;;;;;;6.8;4.6;;;;;;;13.67;83.63;;;;;
2023/10/25 11:48:05;;;;;;;;;;;;;;;;;;;;;
2023/10/25 11:58:05;;;;;;;6.6;4.2;;;;;;;13.82;83.57;;;;;
2023/10/25 12:09:05;;;;;;;6.6;4.2;;;;;;;13.82;83.52;;;;;
2023/10/25 12:20:05;;;;;;;6.6;4.2;;;;;;;13.73;82.72;;;;;
2023/10/25 12:31:05;;;;;;;7.9;4;;;;;;;14.02;82.08;;;;;
2023/10/25 12:42:05;;;;;;;7.9;4;;;;;;;14.05;82.37;;;;;
2023/10/25 12:53:05;;;;;;;7.9;4;;;;;;;14.13;81.8;;;;;
2023/10/25 13:03:06;;;;;;;7.2;4.9;;;;;;;14.13;81.14;;;;;
2023/10/25 13:14:05;;;;;;;7.2;4.9;;;;;;;14.23;79.31;;;;;
2023/10/25 13:25:05;;;;;;;7.2;4.9;;;;;;;14.84;78.34;;;;;
2023/10/25 13:36:05;;;;;;;;;;;;;;;;;;;;;
2023/10/25 13:46:06;;;;;;;5.7;3.6;;;;;;;14.86;76.55;;;;;
2023/10/25 13:56:08;;;;;;;5.7;3.6;;;;;;;14.43;76.88;;;;;
2023/10/25 14:06:05;;;;;;;10.5;4.5;;;;;;;14.32;77.52;;;;;
2023/10/25 14:16:06;;;;;;;10.5;4.5;;;;;;;14.28;78.03;;;;;
2023/10/25 14:27:05;;;;;;;10.5;4.5;;;;;;;14.33;78.37;;;;;
2023/10/25 14:37:07;;;;;;;7.8;4.8;;;;;;;14.53;78.67;;;;;
2023/10/25 14:48:07;;;;;;;7.8;4.8;;;;;;;14.58;78.81;;;;;
2023/10/25 14:58:05;;;;;;;7.4;4.2;;;;;;;14.63;79.06;;;;;
2023/10/25 15:08:05;;;;;;;7.4;4.2;;;;;;;14.47;78.89;;;;;
2023/10/25 15:18:05;;;;;;;7.4;4.2;;;;;;;14.21;79.03;;;;;
2023/10/25 15:29:06;;;;;;;9;4.8;;;;;;;13.76;79.78;;;;;
2023/10/25 15:40:05;;;;;;;9;4.8;;;;;;;13.2;80.43;;;;;
2023/10/25 15:50:06;;;;;;;9;4.8;;;;;;;12.92;81.06;;;;;
2023/10/25 16:01:06;;;;;;;;;;;;;;;;;;;;;
2023/10/25 16:11:06;;;;;;;;;;;;;;;;;;;;;
2023/10/25 16:22:07;;;;;;;;;;;;;;;;;;;;;
2023/10/25 16:32:06;;;;;;;;;;;;;;;;;;;;;
2023/10/25 16:42:06;;;;;;;;;;;;;;;;;;;;;
2023/10/25 16:52:06;;;;;;;;;;;;;;;;;;;;;
2023/10/25 17:03:06;;;;;;;;;;;;;;;;;;;;;
2023/10/25 17:13:06;;;;;;;;;;;;;;;;;;;;;
2023/10/25 17:23:06;;;;;;;;;;;;;;;;;;;;;
2023/10/25 17:33:06;;;;;;;;;;;;;;;;;;;;;
2023/10/25 17:43:06;;;;;;;;;;;;;;;;;;;;;
2023/10/25 17:54:06;;;;;;;;;;;;;;;;;;;;;
2023/10/25 18:04:06;;;;;;;;;;;;;;;;;;;;;
2023/10/25 18:14:06;;;;;;;;;;;;;;;;;;;;;
2023/10/25 18:24:06;;;;;;;;;;;;;;;;;;;;;
2023/10/25 18:35:06;;;;;;;;;;;;;;;9.39;87.64;;;;;
2023/10/25 18:46:08;;;;;;;;;;;;;;;;;;;;;
2023/10/25 18:57:06;;;;;;;;;;;;;;;;;;;;;
2023/10/25 19:08:06;;;;;;;;;;;;;;;;;;;;;
2023/10/25 19:19:06;;;;;;;;;;;;;;;;;;;;;
2023/10/25 19:30:07;;;;;;;;;;;;;;;;;;;;;
2023/10/25 19:40:06;;;;;;;;;;;;;;;;;;;;;
2023/10/25 19:50:06;;;;;;;;;;;;;;;;;;;;;
2023/10/25 20:01:06;;;;;;;;;;;;;;;;;;;;;
2023/10/25 20:11:06;;;;;;;;;;;;;;;;;;;;;
2023/10/25 20:22:06;;;;;;;;;;;;;;;;;;;;;
2023/10/25 20:33:06;;;;;;;;;;;;;;;;;;;;;
2023/10/25 20:43:06;;;;;;;;;;;;;;;;;;;;;
2023/10/25 20:54:06;;;;;;;;;;;;;;;;;;;;;
2023/10/25 21:05:06;;;;;;;;;;;;;;;;;;;;;
2023/10/25 21:16:06;;;;;;;;;;;;;;;;;;;;;
2023/10/25 21:26:06;;;;;;;14.4;10.4;;;;;;;7.42;89.79;;;;;
2023/10/25 21:37:06;;;;;;;14.4;10.4;;;;;;;7.37;89.36;;;;;
2023/10/25 21:47:06;;;;;;;12.8;7;;;;;;;7.33;89.4;;;;;
2023/10/25 21:57:06;;;;;;;;;;;;;;;;;;;;;
2023/10/25 22:07:06;;;;;;;;;;;;;;;;;;;;;
2023/10/25 22:18:06;;;;;;;11.9;7.5;;;;;;;6.91;89.46;;;;;
2023/10/25 22:28:06;;;;;;;11.9;7.5;;;;;;;6.75;89.08;;;;;
2023/10/25 22:38:06;;;;;;;11.9;7.5;;;;;;;6.56;88.72;;;;;
2023/10/25 22:49:06;;;;;;;14.9;8.1;;;;;;;6.54;88.99;;;;;
2023/10/25 22:59:06;;;;;;;14.9;8.1;;;;;;;6.4;88.55;;;;;
2023/10/25 23:09:06;;;;;;;14.9;8.1;;;;;;;6.28;90.16;;;;;
2023/10/25 23:20:06;;;;;;;16.6;9.4;;;;;;;6.3;90.04;;;;;
2023/10/25 23:30:06;;;;;;;16.6;9.4;;;;;;;6.3;90.12;;;;;
2023/10/25 23:41:06;;;;;;;16.6;9.4;;;;;;;6.25;89.73;;;;;
2023/10/25 23:51:06;;;;;;;19.4;10.2;;;;;;;6.38;90.19;;;;;
